sensor_id;sensor_type;location;lat;lon;timestamp;P1;durP1;ratioP1;P2;durP2;ratioP2
8407;SDS011;4241;48.452;9.216;2022-09-28T00:01:26;399.43;;;128.57;;
8407;SDS011;4241;48.452;9.216;2022-09-28T00:03:54;404.30;;;130.87;;
8407;SDS011;4241;48.452;9.216;2022-09-28T00:06:25;400.43;;;127.23;;
8407;SDS011;4241;48.452;9.216;2022-09-28T00:08:54;395.20;;;126.00;;
8407;SDS011;4241;48.452;9.216;2022-09-28T00:11:21;394.83;;;126.63;;
8407;SDS011;4241;48.452;9.216;2022-09-28T00:13:53;395.70;;;127.60;;
8407;SDS011;4241;48.452;9.216;2022-09-28T00:16:23;392.37;;;126.10;;
8407;SDS011;4241;48.452;9.216;2022-09-28T00:18:51;396.60;;;127.00;;
8407;SDS011;4241;48.452;9.216;2022-09-28T00:21:18;396.73;;;128.53;;
8407;SDS011;4241;48.452;9.216;2022-09-28T00:23:49;397.07;;;127.10;;
8407;SDS011;4241;48.452;9.216;2022-09-28T00:26:34;395.07;;;127.67;;
8407;SDS011;4241;48.452;9.216;2022-09-28T00:29:02;399.13;;;129.07;;
8407;SDS011;4241;48.452;9.216;2022-09-28T00:31:30;396.00;;;126.37;;
8407;SDS011;4241;48.452;9.216;2022-09-28T00:33:58;403.20;;;130.60;;
8407;SDS011;4241;48.452;9.216;2022-09-28T00:36:26;399.87;;;128.40;;
8407;SDS011;4241;48.452;9.216;2022-09-28T00:38:55;402.73;;;130.83;;
8407;SDS011;4241;48.452;9.216;2022-09-28T00:41:22;402.90;;;129.77;;
8407;SDS011;4241;48.452;9.216;2022-09-28T00:43:49;401.40;;;128.60;;
8407;SDS011;4241;48.452;9.216;2022-09-28T00:46:17;406.57;;;128.87;;
8407;SDS011;4241;48.452;9.216;2022-09-28T00:48:48;404.83;;;130.53;;
8407;SDS011;4241;48.452;9.216;2022-09-28T00:51:19;407.03;;;129.70;;
8407;SDS011;4241;48.452;9.216;2022-09-28T00:53:47;409.50;;;130.47;;
8407;SDS011;4241;48.452;9.216;2022-09-28T00:56:18;409.67;;;128.97;;
8407;SDS011;4241;48.452;9.216;2022-09-28T00:58:48;424.70;;;131.53;;
8407;SDS011;4241;48.452;9.216;2022-09-28T01:01:18;424.23;;;131.30;;
8407;SDS011;4241;48.452;9.216;2022-09-28T01:03:45;414.87;;;131.93;;
8407;SDS011;4241;48.452;9.216;2022-09-28T01:06:14;407.13;;;130.43;;
8407;SDS011;4241;48.452;9.216;2022-09-28T01:08:44;403.97;;;129.73;;
8407;SDS011;4241;48.452;9.216;2022-09-28T01:11:12;404.43;;;130.60;;
8407;SDS011;4241;48.452;9.216;2022-09-28T01:13:40;403.97;;;129.73;;
8407;SDS011;4241;48.452;9.216;2022-09-28T01:16:10;405.47;;;129.10;;
8407;SDS011;4241;48.452;9.216;2022-09-28T01:18:46;404.10;;;127.47;;
8407;SDS011;4241;48.452;9.216;2022-09-28T01:21:24;407.20;;;128.37;;
8407;SDS011;4241;48.452;9.216;2022-09-28T01:23:53;412.33;;;130.87;;
8407;SDS011;4241;48.452;9.216;2022-09-28T01:26:41;420.67;;;130.33;;
8407;SDS011;4241;48.452;9.216;2022-09-28T01:29:23;409.70;;;129.50;;
8407;SDS011;4241;48.452;9.216;2022-09-28T01:32:11;403.83;;;127.60;;
8407;SDS011;4241;48.452;9.216;2022-09-28T01:34:50;402.70;;;128.33;;
8407;SDS011;4241;48.452;9.216;2022-09-28T01:37:24;404.90;;;129.67;;
8407;SDS011;4241;48.452;9.216;2022-09-28T01:39:53;406.23;;;129.17;;
8407;SDS011;4241;48.452;9.216;2022-09-28T01:42:24;410.30;;;131.83;;
8407;SDS011;4241;48.452;9.216;2022-09-28T01:44:55;411.17;;;130.87;;
8407;SDS011;4241;48.452;9.216;2022-09-28T01:47:27;413.97;;;132.90;;
8407;SDS011;4241;48.452;9.216;2022-09-28T01:49:59;421.70;;;133.17;;
8407;SDS011;4241;48.452;9.216;2022-09-28T01:52:32;421.27;;;135.43;;
8407;SDS011;4241;48.452;9.216;2022-09-28T01:55:05;406.97;;;130.27;;
8407;SDS011;4241;48.452;9.216;2022-09-28T01:57:39;406.13;;;132.20;;
8407;SDS011;4241;48.452;9.216;2022-09-28T02:00:10;404.00;;;131.63;;
8407;SDS011;4241;48.452;9.216;2022-09-28T02:02:41;405.73;;;132.27;;
8407;SDS011;4241;48.452;9.216;2022-09-28T02:05:12;404.07;;;130.97;;
8407;SDS011;4241;48.452;9.216;2022-09-28T02:07:43;403.50;;;128.77;;
8407;SDS011;4241;48.452;9.216;2022-09-28T02:10:14;403.70;;;130.17;;
8407;SDS011;4241;48.452;9.216;2022-09-28T02:12:47;405.87;;;131.83;;
8407;SDS011;4241;48.452;9.216;2022-09-28T02:15:17;404.73;;;130.53;;
8407;SDS011;4241;48.452;9.216;2022-09-28T02:17:46;402.30;;;130.20;;
8407;SDS011;4241;48.452;9.216;2022-09-28T02:20:14;401.70;;;128.03;;
8407;SDS011;4241;48.452;9.216;2022-09-28T02:22:43;405.27;;;129.87;;
8407;SDS011;4241;48.452;9.216;2022-09-28T02:25:15;408.17;;;132.13;;
8407;SDS011;4241;48.452;9.216;2022-09-28T02:27:49;408.87;;;130.67;;
8407;SDS011;4241;48.452;9.216;2022-09-28T02:30:20;407.93;;;131.10;;
8407;SDS011;4241;48.452;9.216;2022-09-28T02:32:48;413.57;;;132.80;;
8407;SDS011;4241;48.452;9.216;2022-09-28T02:35:18;421.33;;;132.70;;
8407;SDS011;4241;48.452;9.216;2022-09-28T02:37:45;424.40;;;133.20;;
8407;SDS011;4241;48.452;9.216;2022-09-28T02:40:13;428.07;;;132.70;;
8407;SDS011;4241;48.452;9.216;2022-09-28T02:42:43;413.17;;;130.93;;
8407;SDS011;4241;48.452;9.216;2022-09-28T02:45:21;407.97;;;131.93;;
8407;SDS011;4241;48.452;9.216;2022-09-28T02:48:02;408.20;;;132.43;;
8407;SDS011;4241;48.452;9.216;2022-09-28T02:50:39;405.57;;;130.97;;
8407;SDS011;4241;48.452;9.216;2022-09-28T02:53:21;407.53;;;131.33;;
8407;SDS011;4241;48.452;9.216;2022-09-28T02:56:06;407.97;;;129.97;;
8407;SDS011;4241;48.452;9.216;2022-09-28T02:58:44;410.53;;;132.40;;
8407;SDS011;4241;48.452;9.216;2022-09-28T03:01:24;414.30;;;130.70;;
8407;SDS011;4241;48.452;9.216;2022-09-28T03:03:56;431.33;;;131.70;;
8407;SDS011;4241;48.452;9.216;2022-09-28T03:06:35;428.67;;;132.30;;
8407;SDS011;4241;48.452;9.216;2022-09-28T03:09:07;419.87;;;131.30;;
8407;SDS011;4241;48.452;9.216;2022-09-28T03:11:42;420.07;;;131.07;;
8407;SDS011;4241;48.452;9.216;2022-09-28T03:14:13;418.57;;;133.10;;
8407;SDS011;4241;48.452;9.216;2022-09-28T03:16:43;427.10;;;134.10;;
8407;SDS011;4241;48.452;9.216;2022-09-28T03:19:10;427.23;;;131.60;;
8407;SDS011;4241;48.452;9.216;2022-09-28T03:21:37;411.33;;;131.57;;
8407;SDS011;4241;48.452;9.216;2022-09-28T03:24:04;405.37;;;130.33;;
8407;SDS011;4241;48.452;9.216;2022-09-28T03:26:31;403.87;;;131.10;;
8407;SDS011;4241;48.452;9.216;2022-09-28T03:28:58;405.73;;;131.87;;
8407;SDS011;4241;48.452;9.216;2022-09-28T03:31:28;401.83;;;131.23;;
8407;SDS011;4241;48.452;9.216;2022-09-28T03:33:56;400.50;;;130.43;;
8407;SDS011;4241;48.452;9.216;2022-09-28T03:36:23;400.47;;;130.40;;
8407;SDS011;4241;48.452;9.216;2022-09-28T03:38:50;403.60;;;131.77;;
8407;SDS011;4241;48.452;9.216;2022-09-28T03:41:17;401.30;;;130.20;;
8407;SDS011;4241;48.452;9.216;2022-09-28T03:43:44;398.43;;;128.63;;
8407;SDS011;4241;48.452;9.216;2022-09-28T03:46:10;399.70;;;129.17;;
8407;SDS011;4241;48.452;9.216;2022-09-28T03:48:38;401.93;;;132.47;;
8407;SDS011;4241;48.452;9.216;2022-09-28T03:51:07;399.57;;;131.27;;
8407;SDS011;4241;48.452;9.216;2022-09-28T03:53:36;398.30;;;129.43;;
8407;SDS011;4241;48.452;9.216;2022-09-28T03:56:04;401.10;;;130.83;;
8407;SDS011;4241;48.452;9.216;2022-09-28T03:58:32;400.03;;;130.53;;
8407;SDS011;4241;48.452;9.216;2022-09-28T04:01:02;400.00;;;131.40;;
8407;SDS011;4241;48.452;9.216;2022-09-28T04:03:30;397.90;;;130.30;;
8407;SDS011;4241;48.452;9.216;2022-09-28T04:05:56;397.97;;;130.00;;
8407;SDS011;4241;48.452;9.216;2022-09-28T04:08:25;395.07;;;129.60;;
8407;SDS011;4241;48.452;9.216;2022-09-28T04:10:54;396.10;;;129.10;;
8407;SDS011;4241;48.452;9.216;2022-09-28T04:13:22;400.17;;;131.60;;
8407;SDS011;4241;48.452;9.216;2022-09-28T04:15:52;395.43;;;129.53;;
8407;SDS011;4241;48.452;9.216;2022-09-28T04:18:20;396.50;;;129.93;;
8407;SDS011;4241;48.452;9.216;2022-09-28T04:20:47;398.63;;;131.90;;
8407;SDS011;4241;48.452;9.216;2022-09-28T04:23:24;399.03;;;134.97;;
8407;SDS011;4241;48.452;9.216;2022-09-28T04:25:52;393.33;;;129.00;;
8407;SDS011;4241;48.452;9.216;2022-09-28T04:28:19;395.77;;;131.77;;
8407;SDS011;4241;48.452;9.216;2022-09-28T04:31:06;392.40;;;129.17;;
8407;SDS011;4241;48.452;9.216;2022-09-28T04:33:35;396.40;;;131.07;;
8407;SDS011;4241;48.452;9.216;2022-09-28T04:36:02;399.53;;;131.83;;
8407;SDS011;4241;48.452;9.216;2022-09-28T04:38:30;402.03;;;130.53;;
8407;SDS011;4241;48.452;9.216;2022-09-28T04:40:57;408.33;;;134.90;;
8407;SDS011;4241;48.452;9.216;2022-09-28T04:43:24;412.63;;;134.33;;
8407;SDS011;4241;48.452;9.216;2022-09-28T04:45:50;414.77;;;134.03;;
8407;SDS011;4241;48.452;9.216;2022-09-28T04:48:17;430.83;;;134.80;;
8407;SDS011;4241;48.452;9.216;2022-09-28T04:50:51;416.20;;;133.30;;
8407;SDS011;4241;48.452;9.216;2022-09-28T04:53:18;412.57;;;134.73;;
8407;SDS011;4241;48.452;9.216;2022-09-28T04:55:54;408.20;;;132.43;;
8407;SDS011;4241;48.452;9.216;2022-09-28T04:58:22;410.60;;;135.83;;
8407;SDS011;4241;48.452;9.216;2022-09-28T05:00:52;414.43;;;133.63;;
8407;SDS011;4241;48.452;9.216;2022-09-28T05:03:21;428.77;;;136.30;;
8407;SDS011;4241;48.452;9.216;2022-09-28T05:05:48;409.40;;;135.90;;
8407;SDS011;4241;48.452;9.216;2022-09-28T05:08:15;399.37;;;131.13;;
8407;SDS011;4241;48.452;9.216;2022-09-28T05:10:42;400.57;;;132.63;;
8407;SDS011;4241;48.452;9.216;2022-09-28T05:13:12;399.47;;;132.60;;
8407;SDS011;4241;48.452;9.216;2022-09-28T05:15:39;400.10;;;130.90;;
8407;SDS011;4241;48.452;9.216;2022-09-28T05:18:07;400.07;;;130.83;;
8407;SDS011;4241;48.452;9.216;2022-09-28T05:20:38;400.87;;;132.07;;
8407;SDS011;4241;48.452;9.216;2022-09-28T05:23:07;399.83;;;130.43;;
8407;SDS011;4241;48.452;9.216;2022-09-28T05:25:35;401.30;;;131.47;;
8407;SDS011;4241;48.452;9.216;2022-09-28T05:28:02;403.40;;;133.63;;
8407;SDS011;4241;48.452;9.216;2022-09-28T05:30:30;405.80;;;133.53;;
8407;SDS011;4241;48.452;9.216;2022-09-28T05:32:57;415.30;;;135.93;;
8407;SDS011;4241;48.452;9.216;2022-09-28T05:35:24;425.03;;;133.53;;
8407;SDS011;4241;48.452;9.216;2022-09-28T05:37:50;413.00;;;133.17;;
8407;SDS011;4241;48.452;9.216;2022-09-28T05:40:19;409.70;;;135.53;;
8407;SDS011;4241;48.452;9.216;2022-09-28T05:42:46;405.40;;;133.17;;
8407;SDS011;4241;48.452;9.216;2022-09-28T05:45:13;406.80;;;134.17;;
8407;SDS011;4241;48.452;9.216;2022-09-28T05:47:42;402.97;;;130.63;;
8407;SDS011;4241;48.452;9.216;2022-09-28T05:50:10;402.43;;;130.67;;
8407;SDS011;4241;48.452;9.216;2022-09-28T05:52:40;405.97;;;131.40;;
8407;SDS011;4241;48.452;9.216;2022-09-28T05:55:07;406.10;;;130.57;;
8407;SDS011;4241;48.452;9.216;2022-09-28T05:57:35;446.53;;;147.23;;
8407;SDS011;4241;48.452;9.216;2022-09-28T06:00:02;406.70;;;136.50;;
8407;SDS011;4241;48.452;9.216;2022-09-28T06:02:29;400.93;;;134.37;;
8407;SDS011;4241;48.452;9.216;2022-09-28T06:04:58;395.47;;;131.03;;
8407;SDS011;4241;48.452;9.216;2022-09-28T06:07:24;392.73;;;128.83;;
8407;SDS011;4241;48.452;9.216;2022-09-28T06:09:51;396.10;;;131.00;;
8407;SDS011;4241;48.452;9.216;2022-09-28T06:12:18;399.27;;;134.73;;
8407;SDS011;4241;48.452;9.216;2022-09-28T06:14:45;393.17;;;127.73;;
8407;SDS011;4241;48.452;9.216;2022-09-28T06:17:12;398.93;;;130.30;;
8407;SDS011;4241;48.452;9.216;2022-09-28T06:19:39;399.40;;;129.97;;
8407;SDS011;4241;48.452;9.216;2022-09-28T06:22:07;405.77;;;131.33;;
8407;SDS011;4241;48.452;9.216;2022-09-28T06:24:40;414.27;;;130.93;;
8407;SDS011;4241;48.452;9.216;2022-09-28T06:27:07;404.17;;;131.30;;
8407;SDS011;4241;48.452;9.216;2022-09-28T06:29:34;397.73;;;131.07;;
8407;SDS011;4241;48.452;9.216;2022-09-28T06:32:01;395.97;;;130.77;;
8407;SDS011;4241;48.452;9.216;2022-09-28T06:34:27;396.67;;;130.70;;
8407;SDS011;4241;48.452;9.216;2022-09-28T06:36:55;397.03;;;133.03;;
8407;SDS011;4241;48.452;9.216;2022-09-28T06:39:23;394.03;;;129.60;;
8407;SDS011;4241;48.452;9.216;2022-09-28T06:41:50;391.80;;;129.07;;
8407;SDS011;4241;48.452;9.216;2022-09-28T06:44:17;391.93;;;128.37;;
8407;SDS011;4241;48.452;9.216;2022-09-28T06:46:44;393.90;;;129.93;;
8407;SDS011;4241;48.452;9.216;2022-09-28T06:49:11;396.13;;;130.80;;
8407;SDS011;4241;48.452;9.216;2022-09-28T06:51:38;393.50;;;129.17;;
8407;SDS011;4241;48.452;9.216;2022-09-28T06:54:04;395.23;;;130.33;;
8407;SDS011;4241;48.452;9.216;2022-09-28T06:56:33;391.43;;;127.57;;
8407;SDS011;4241;48.452;9.216;2022-09-28T06:59:01;392.67;;;128.17;;
8407;SDS011;4241;48.452;9.216;2022-09-28T07:01:27;394.03;;;128.80;;
8407;SDS011;4241;48.452;9.216;2022-09-28T07:03:54;393.90;;;128.50;;
8407;SDS011;4241;48.452;9.216;2022-09-28T07:06:21;393.50;;;128.07;;
8407;SDS011;4241;48.452;9.216;2022-09-28T07:08:50;397.03;;;130.23;;
8407;SDS011;4241;48.452;9.216;2022-09-28T07:11:17;393.73;;;128.73;;
8407;SDS011;4241;48.452;9.216;2022-09-28T07:13:46;395.17;;;128.50;;
8407;SDS011;4241;48.452;9.216;2022-09-28T07:16:13;395.80;;;129.87;;
8407;SDS011;4241;48.452;9.216;2022-09-28T07:18:40;397.73;;;129.47;;
8407;SDS011;4241;48.452;9.216;2022-09-28T07:21:06;402.77;;;131.73;;
8407;SDS011;4241;48.452;9.216;2022-09-28T07:23:33;397.60;;;128.10;;
8407;SDS011;4241;48.452;9.216;2022-09-28T07:26:02;401.43;;;128.77;;
8407;SDS011;4241;48.452;9.216;2022-09-28T07:28:30;410.23;;;134.03;;
8407;SDS011;4241;48.452;9.216;2022-09-28T07:30:59;414.70;;;132.50;;
8407;SDS011;4241;48.452;9.216;2022-09-28T07:33:27;418.27;;;133.10;;
8407;SDS011;4241;48.452;9.216;2022-09-28T07:35:56;411.57;;;133.00;;
8407;SDS011;4241;48.452;9.216;2022-09-28T07:38:25;429.80;;;146.67;;
8407;SDS011;4241;48.452;9.216;2022-09-28T07:40:52;424.50;;;135.83;;
8407;SDS011;4241;48.452;9.216;2022-09-28T07:43:44;418.27;;;135.90;;
8407;SDS011;4241;48.452;9.216;2022-09-28T07:46:12;418.23;;;133.63;;
8407;SDS011;4241;48.452;9.216;2022-09-28T07:48:41;414.57;;;134.03;;
8407;SDS011;4241;48.452;9.216;2022-09-28T07:51:09;410.43;;;135.23;;
8407;SDS011;4241;48.452;9.216;2022-09-28T07:53:36;407.87;;;132.30;;
8407;SDS011;4241;48.452;9.216;2022-09-28T07:56:03;416.00;;;136.10;;
8407;SDS011;4241;48.452;9.216;2022-09-28T07:58:32;426.57;;;132.60;;
8407;SDS011;4241;48.452;9.216;2022-09-28T08:01:02;420.37;;;133.90;;
8407;SDS011;4241;48.452;9.216;2022-09-28T08:03:32;417.57;;;134.37;;
8407;SDS011;4241;48.452;9.216;2022-09-28T08:05:59;428.43;;;135.40;;
8407;SDS011;4241;48.452;9.216;2022-09-28T08:08:27;425.33;;;134.07;;
8407;SDS011;4241;48.452;9.216;2022-09-28T08:10:55;415.80;;;135.53;;
8407;SDS011;4241;48.452;9.216;2022-09-28T08:13:22;407.33;;;135.13;;
8407;SDS011;4241;48.452;9.216;2022-09-28T08:15:50;404.63;;;133.37;;
8407;SDS011;4241;48.452;9.216;2022-09-28T08:18:17;405.17;;;133.10;;
8407;SDS011;4241;48.452;9.216;2022-09-28T08:20:46;405.40;;;133.03;;
8407;SDS011;4241;48.452;9.216;2022-09-28T08:23:33;404.83;;;134.87;;
8407;SDS011;4241;48.452;9.216;2022-09-28T08:26:01;405.87;;;133.87;;
8407;SDS011;4241;48.452;9.216;2022-09-28T08:28:28;405.27;;;132.73;;
8407;SDS011;4241;48.452;9.216;2022-09-28T08:30:57;408.53;;;133.83;;
8407;SDS011;4241;48.452;9.216;2022-09-28T08:33:25;414.07;;;137.40;;
8407;SDS011;4241;48.452;9.216;2022-09-28T08:35:57;410.83;;;133.37;;
8407;SDS011;4241;48.452;9.216;2022-09-28T08:38:32;412.23;;;135.57;;
8407;SDS011;4241;48.452;9.216;2022-09-28T08:41:01;416.00;;;134.67;;
8407;SDS011;4241;48.452;9.216;2022-09-28T08:43:41;417.77;;;135.70;;
8407;SDS011;4241;48.452;9.216;2022-09-28T08:46:29;423.70;;;135.50;;
8407;SDS011;4241;48.452;9.216;2022-09-28T08:49:02;418.93;;;136.00;;
8407;SDS011;4241;48.452;9.216;2022-09-28T08:51:36;433.83;;;136.13;;
8407;SDS011;4241;48.452;9.216;2022-09-28T08:54:21;412.03;;;136.70;;
8407;SDS011;4241;48.452;9.216;2022-09-28T08:57:00;400.87;;;134.23;;
8407;SDS011;4241;48.452;9.216;2022-09-28T08:59:33;399.77;;;133.67;;
8407;SDS011;4241;48.452;9.216;2022-09-28T09:02:14;397.37;;;131.67;;
8407;SDS011;4241;48.452;9.216;2022-09-28T09:04:45;393.27;;;130.57;;
8407;SDS011;4241;48.452;9.216;2022-09-28T09:07:20;393.90;;;129.33;;
8407;SDS011;4241;48.452;9.216;2022-09-28T09:10:06;393.33;;;130.03;;
8407;SDS011;4241;48.452;9.216;2022-09-28T09:12:41;396.17;;;130.47;;
8407;SDS011;4241;48.452;9.216;2022-09-28T09:15:25;396.23;;;130.53;;
8407;SDS011;4241;48.452;9.216;2022-09-28T09:18:07;400.53;;;131.97;;
8407;SDS011;4241;48.452;9.216;2022-09-28T09:20:43;401.13;;;131.53;;
8407;SDS011;4241;48.452;9.216;2022-09-28T09:23:16;406.50;;;133.07;;
8407;SDS011;4241;48.452;9.216;2022-09-28T09:25:47;407.50;;;133.93;;
8407;SDS011;4241;48.452;9.216;2022-09-28T09:31:19;413.23;;;133.33;;
8407;SDS011;4241;48.452;9.216;2022-09-28T09:34:04;432.10;;;134.70;;
8407;SDS011;4241;48.452;9.216;2022-09-28T09:36:48;416.67;;;135.37;;
8407;SDS011;4241;48.452;9.216;2022-09-28T09:39:31;421.57;;;135.80;;
8407;SDS011;4241;48.452;9.216;2022-09-28T09:42:10;424.73;;;138.47;;
8407;SDS011;4241;48.452;9.216;2022-09-28T09:44:57;417.33;;;134.03;;
8407;SDS011;4241;48.452;9.216;2022-09-28T09:47:48;419.53;;;132.43;;
8407;SDS011;4241;48.452;9.216;2022-09-28T09:50:20;410.53;;;134.80;;
8407;SDS011;4241;48.452;9.216;2022-09-28T09:52:54;408.27;;;133.57;;
8407;SDS011;4241;48.452;9.216;2022-09-28T09:55:28;409.27;;;134.20;;
8407;SDS011;4241;48.452;9.216;2022-09-28T09:58:01;409.60;;;134.17;;
8407;SDS011;4241;48.452;9.216;2022-09-28T10:00:34;410.13;;;135.77;;
8407;SDS011;4241;48.452;9.216;2022-09-28T10:03:01;411.33;;;135.20;;
8407;SDS011;4241;48.452;9.216;2022-09-28T10:05:28;411.77;;;135.13;;
8407;SDS011;4241;48.452;9.216;2022-09-28T10:07:57;414.97;;;138.00;;
8407;SDS011;4241;48.452;9.216;2022-09-28T10:10:29;418.00;;;136.77;;
8407;SDS011;4241;48.452;9.216;2022-09-28T10:13:00;422.73;;;137.43;;
8407;SDS011;4241;48.452;9.216;2022-09-28T10:15:27;430.53;;;138.07;;
8407;SDS011;4241;48.452;9.216;2022-09-28T10:17:56;438.17;;;139.97;;
8407;SDS011;4241;48.452;9.216;2022-09-28T10:20:25;431.77;;;140.67;;
8407;SDS011;4241;48.452;9.216;2022-09-28T10:22:56;430.87;;;139.77;;
8407;SDS011;4241;48.452;9.216;2022-09-28T10:25:26;421.40;;;139.23;;
8407;SDS011;4241;48.452;9.216;2022-09-28T10:27:57;419.43;;;139.10;;
8407;SDS011;4241;48.452;9.216;2022-09-28T10:30:26;419.27;;;138.73;;
8407;SDS011;4241;48.452;9.216;2022-09-28T10:32:53;425.17;;;141.03;;
8407;SDS011;4241;48.452;9.216;2022-09-28T10:35:24;422.73;;;139.57;;
8407;SDS011;4241;48.452;9.216;2022-09-28T10:37:53;425.60;;;140.40;;
8407;SDS011;4241;48.452;9.216;2022-09-28T10:40:28;430.47;;;143.90;;
8407;SDS011;4241;48.452;9.216;2022-09-28T10:43:04;430.57;;;143.10;;
8407;SDS011;4241;48.452;9.216;2022-09-28T10:45:39;432.63;;;142.67;;
8407;SDS011;4241;48.452;9.216;2022-09-28T10:48:12;433.27;;;145.10;;
8407;SDS011;4241;48.452;9.216;2022-09-28T10:50:43;435.47;;;145.17;;
8407;SDS011;4241;48.452;9.216;2022-09-28T10:53:24;440.10;;;146.93;;
8407;SDS011;4241;48.452;9.216;2022-09-28T10:55:57;442.90;;;145.77;;
8407;SDS011;4241;48.452;9.216;2022-09-28T10:58:27;446.90;;;145.00;;
8407;SDS011;4241;48.452;9.216;2022-09-28T11:01:00;442.70;;;147.70;;
8407;SDS011;4241;48.452;9.216;2022-09-28T11:03:29;440.70;;;146.20;;
8407;SDS011;4241;48.452;9.216;2022-09-28T11:05:58;442.70;;;146.87;;
8407;SDS011;4241;48.452;9.216;2022-09-28T11:08:30;447.97;;;147.77;;
8407;SDS011;4241;48.452;9.216;2022-09-28T11:11:03;451.90;;;148.70;;
8407;SDS011;4241;48.452;9.216;2022-09-28T11:13:43;446.60;;;152.00;;
8407;SDS011;4241;48.452;9.216;2022-09-28T11:16:17;442.70;;;149.07;;
8407;SDS011;4241;48.452;9.216;2022-09-28T11:18:52;442.10;;;149.30;;
8407;SDS011;4241;48.452;9.216;2022-09-28T11:21:21;443.83;;;149.43;;
8407;SDS011;4241;48.452;9.216;2022-09-28T11:23:56;444.47;;;149.83;;
8407;SDS011;4241;48.452;9.216;2022-09-28T11:26:26;442.43;;;149.93;;
8407;SDS011;4241;48.452;9.216;2022-09-28T11:29:01;448.17;;;150.93;;
8407;SDS011;4241;48.452;9.216;2022-09-28T11:31:28;447.90;;;150.40;;
8407;SDS011;4241;48.452;9.216;2022-09-28T11:34:00;451.37;;;150.57;;
8407;SDS011;4241;48.452;9.216;2022-09-28T11:36:42;447.83;;;148.00;;
8407;SDS011;4241;48.452;9.216;2022-09-28T11:39:27;449.03;;;152.23;;
8407;SDS011;4241;48.452;9.216;2022-09-28T11:42:06;446.83;;;149.17;;
8407;SDS011;4241;48.452;9.216;2022-09-28T11:44:42;450.13;;;150.90;;
8407;SDS011;4241;48.452;9.216;2022-09-28T11:47:15;449.80;;;149.30;;
8407;SDS011;4241;48.452;9.216;2022-09-28T11:49:55;450.33;;;151.40;;
8407;SDS011;4241;48.452;9.216;2022-09-28T11:52:27;449.97;;;154.30;;
8407;SDS011;4241;48.452;9.216;2022-09-28T11:55:00;444.13;;;148.10;;
8407;SDS011;4241;48.452;9.216;2022-09-28T11:57:34;445.93;;;151.43;;
8407;SDS011;4241;48.452;9.216;2022-09-28T12:00:05;444.20;;;147.60;;
8407;SDS011;4241;48.452;9.216;2022-09-28T12:02:38;445.87;;;150.50;;
8407;SDS011;4241;48.452;9.216;2022-09-28T12:05:10;445.47;;;150.47;;
8407;SDS011;4241;48.452;9.216;2022-09-28T12:07:42;446.10;;;149.87;;
8407;SDS011;4241;48.452;9.216;2022-09-28T12:10:13;446.67;;;150.97;;
8407;SDS011;4241;48.452;9.216;2022-09-28T12:12:46;445.77;;;149.83;;
8407;SDS011;4241;48.452;9.216;2022-09-28T12:15:17;447.03;;;149.83;;
8407;SDS011;4241;48.452;9.216;2022-09-28T12:17:47;447.87;;;151.50;;
8407;SDS011;4241;48.452;9.216;2022-09-28T12:20:19;448.90;;;150.53;;
8407;SDS011;4241;48.452;9.216;2022-09-28T12:22:53;449.50;;;151.30;;
8407;SDS011;4241;48.452;9.216;2022-09-28T12:25:28;454.23;;;152.70;;
8407;SDS011;4241;48.452;9.216;2022-09-28T12:28:04;450.57;;;149.73;;
8407;SDS011;4241;48.452;9.216;2022-09-28T12:30:33;449.70;;;149.57;;
8407;SDS011;4241;48.452;9.216;2022-09-28T12:33:05;443.00;;;147.77;;
8407;SDS011;4241;48.452;9.216;2022-09-28T12:35:39;444.87;;;150.83;;
8407;SDS011;4241;48.452;9.216;2022-09-28T12:38:25;438.43;;;145.70;;
8407;SDS011;4241;48.452;9.216;2022-09-28T12:41:07;443.47;;;148.40;;
8407;SDS011;4241;48.452;9.216;2022-09-28T12:46:48;443.40;;;148.40;;
8407;SDS011;4241;48.452;9.216;2022-09-28T12:49:29;444.33;;;146.80;;
8407;SDS011;4241;48.452;9.216;2022-09-28T12:52:03;447.83;;;147.27;;
8407;SDS011;4241;48.452;9.216;2022-09-28T12:54:45;448.50;;;146.97;;
8407;SDS011;4241;48.452;9.216;2022-09-28T12:57:41;448.97;;;146.13;;
8407;SDS011;4241;48.452;9.216;2022-09-28T13:00:16;444.30;;;147.67;;
8407;SDS011;4241;48.452;9.216;2022-09-28T13:09:17;439.17;;;149.23;;
8407;SDS011;4241;48.452;9.216;2022-09-28T13:12:03;438.17;;;148.17;;
8407;SDS011;4241;48.452;9.216;2022-09-28T13:14:55;439.53;;;148.07;;
8407;SDS011;4241;48.452;9.216;2022-09-28T13:17:43;438.67;;;149.70;;
8407;SDS011;4241;48.452;9.216;2022-09-28T13:20:20;438.30;;;148.90;;
8407;SDS011;4241;48.452;9.216;2022-09-28T13:23:03;437.30;;;148.07;;
8407;SDS011;4241;48.452;9.216;2022-09-28T13:25:41;439.80;;;148.37;;
8407;SDS011;4241;48.452;9.216;2022-09-28T13:28:13;439.63;;;148.27;;
8407;SDS011;4241;48.452;9.216;2022-09-28T13:30:44;439.47;;;148.60;;
8407;SDS011;4241;48.452;9.216;2022-09-28T13:33:16;440.17;;;149.03;;
8407;SDS011;4241;48.452;9.216;2022-09-28T13:35:48;440.17;;;149.33;;
8407;SDS011;4241;48.452;9.216;2022-09-28T13:38:28;441.60;;;150.77;;
8407;SDS011;4241;48.452;9.216;2022-09-28T13:41:14;438.97;;;148.00;;
8407;SDS011;4241;48.452;9.216;2022-09-28T13:46:46;441.10;;;150.47;;
8407;SDS011;4241;48.452;9.216;2022-09-28T13:49:34;440.40;;;150.03;;
8407;SDS011;4241;48.452;9.216;2022-09-28T13:52:11;442.17;;;151.17;;
8407;SDS011;4241;48.452;9.216;2022-09-28T13:54:48;441.47;;;149.73;;
8407;SDS011;4241;48.452;9.216;2022-09-28T13:57:23;442.40;;;150.33;;
8407;SDS011;4241;48.452;9.216;2022-09-28T13:59:57;443.47;;;150.13;;
8407;SDS011;4241;48.452;9.216;2022-09-28T14:02:30;449.93;;;156.70;;
8407;SDS011;4241;48.452;9.216;2022-09-28T14:05:03;445.03;;;151.53;;
8407;SDS011;4241;48.452;9.216;2022-09-28T14:10:44;442.93;;;150.20;;
8407;SDS011;4241;48.452;9.216;2022-09-28T14:16:19;442.10;;;148.60;;
8407;SDS011;4241;48.452;9.216;2022-09-28T14:18:47;444.57;;;151.03;;
8407;SDS011;4241;48.452;9.216;2022-09-28T14:24:29;442.43;;;148.00;;
8407;SDS011;4241;48.452;9.216;2022-09-28T14:27:04;440.13;;;148.03;;
8407;SDS011;4241;48.452;9.216;2022-09-28T14:30:04;441.13;;;149.53;;
8407;SDS011;4241;48.452;9.216;2022-09-28T14:32:33;444.50;;;151.13;;
8407;SDS011;4241;48.452;9.216;2022-09-28T14:35:02;441.73;;;149.17;;
8407;SDS011;4241;48.452;9.216;2022-09-28T14:37:31;439.60;;;145.57;;
8407;SDS011;4241;48.452;9.216;2022-09-28T14:40:19;446.10;;;153.23;;
8407;SDS011;4241;48.452;9.216;2022-09-28T14:43:19;439.80;;;146.47;;
8407;SDS011;4241;48.452;9.216;2022-09-28T14:45:49;441.17;;;149.70;;
8407;SDS011;4241;48.452;9.216;2022-09-28T14:48:19;445.93;;;152.30;;
8407;SDS011;4241;48.452;9.216;2022-09-28T14:50:47;438.60;;;146.53;;
8407;SDS011;4241;48.452;9.216;2022-09-28T14:53:18;443.20;;;148.30;;
8407;SDS011;4241;48.452;9.216;2022-09-28T14:55:49;441.10;;;147.50;;
8407;SDS011;4241;48.452;9.216;2022-09-28T14:58:21;443.60;;;147.33;;
8407;SDS011;4241;48.452;9.216;2022-09-28T15:00:51;444.50;;;149.97;;
8407;SDS011;4241;48.452;9.216;2022-09-28T15:03:25;443.03;;;147.03;;
8407;SDS011;4241;48.452;9.216;2022-09-28T15:05:55;446.53;;;150.30;;
8407;SDS011;4241;48.452;9.216;2022-09-28T15:08:22;449.63;;;152.93;;
8407;SDS011;4241;48.452;9.216;2022-09-28T15:11:03;445.60;;;148.40;;
8407;SDS011;4241;48.452;9.216;2022-09-28T15:13:31;447.27;;;149.43;;